Time;durP1;ratioP1;P1;durP2;ratioP2;P2;SDS_P1;SDS_P2;PMS_P1;PMS_P2;Temp;Humidity;BMP_temperature;BMP_pressure;BME280_temperature;BME280_humidity;BME280_pressure;Samples;Min_cycle;Max_cycle;Signal;HPM_P1;HPM_P2
2023/12/04 00:00:19;;;;;;;7.30;2.77;;;;;;;-5.34;100.00;144977.03;4983508;28;20230;-55
2023/12/04 00:02:47;;;;;;;5.37;2.80;;;;;;;-5.38;100.00;144967.19;4985670;28;20254;-54
2023/12/04 00:05:14;;;;;;;6.23;3.23;;;;;;;-5.39;100.00;144965.94;4985124;28;20254;-56
2023/12/04 00:07:40;;;;;;;9.83;4.47;;;;;;;-5.44;100.00;144953.63;4983313;28;20243;-55
2023/12/04 00:10:08;;;;;;;11.40;5.57;;;;;;;-5.40;100.00;144963.47;4985803;28;20238;-55
2023/12/04 00:12:35;;;;;;;15.53;5.97;;;;;;;-5.37;100.00;144969.63;4981871;28;20860;-56
2023/12/04 00:15:01;;;;;;;14.27;6.87;;;;;;;-5.36;100.00;144973.31;4984238;28;20225;-53
2023/12/04 00:17:28;;;;;;;15.13;7.93;;;;;;;-5.39;100.00;144964.72;4983246;28;20231;-53
2023/12/04 00:19:56;;;;;;;11.90;6.30;;;;;;;-5.42;100.00;144958.53;4985628;28;20219;-54
2023/12/04 00:22:23;;;;;;;12.83;7.00;;;;;;;-5.42;100.00;144958.53;4982513;28;20239;-55
2023/12/04 00:24:50;;;;;;;17.83;8.40;;;;;;;-5.38;100.00;144968.38;4985393;28;20282;-55
2023/12/04 00:27:16;;;;;;;16.13;8.63;;;;;;;-5.36;100.00;144973.31;4983697;28;20607;-56
2023/12/04 00:29:43;;;;;;;18.40;9.13;;;;;;;-5.27;100.00;144993.00;4985714;28;20234;-55
2023/12/04 00:32:10;;;;;;;19.90;9.57;;;;;;;-5.30;100.00;144986.88;4984530;28;20235;-56
2023/12/04 00:34:36;;;;;;;17.20;8.87;;;;;;;-5.32;100.00;144981.94;4982515;28;20309;-55
2023/12/04 00:37:04;;;;;;;21.30;9.90;;;;;;;-5.36;100.00;144972.09;4985423;28;20222;-54
2023/12/04 00:39:31;;;;;;;16.67;8.83;;;;;;;-5.34;100.00;144977.03;4982856;28;20241;-54
2023/12/04 00:41:57;;;;;;;20.43;9.20;;;;;;;-5.38;100.00;144967.19;4985660;28;20591;-55
2023/12/04 00:44:23;;;;;;;19.00;10.17;;;;;;;-5.37;100.00;144969.63;4981431;28;20219;-53
2023/12/04 00:46:49;;;;;;;19.50;9.57;;;;;;;-5.34;100.00;144978.22;4984943;28;20230;-55
2023/12/04 00:49:16;;;;;;;19.40;10.50;;;;;;;-5.30;100.00;144986.88;4982886;28;20226;-52
2023/12/04 00:51:43;;;;;;;18.80;9.70;;;;;;;-5.26;100.00;144995.47;4984944;28;20246;-55
2023/12/04 00:54:11;;;;;;;19.70;9.20;;;;;;;-5.19;100.00;145012.69;4984504;28;20231;-55
2023/12/04 00:56:39;;;;;;;21.20;9.60;;;;;;;-5.23;100.00;145002.84;4982540;28;20235;-55
2023/12/04 00:59:06;;;;;;;19.00;9.50;;;;;;;-5.26;100.00;144996.69;4984901;28;20309;-53
2023/12/04 01:01:33;;;;;;;22.90;10.13;;;;;;;-5.30;100.00;144986.88;4980679;28;20261;-55
2023/12/04 01:04:00;;;;;;;19.03;9.13;;;;;;;-5.32;100.00;144980.69;4984731;28;20224;-54
2023/12/04 01:06:26;;;;;;;15.33;7.80;;;;;;;-5.34;100.00;144977.03;4982439;28;20228;-55
2023/12/04 01:08:54;;;;;;;19.13;8.37;;;;;;;-5.31;100.00;144984.41;4984815;28;20212;-52
2023/12/04 01:11:23;;;;;;;15.53;7.67;;;;;;;-5.23;100.00;145004.06;4982094;28;20231;-54
2023/12/04 01:13:50;;;;;;;14.83;7.77;;;;;;;-5.27;100.00;144994.22;4984288;28;20236;-52
2023/12/04 01:16:17;;;;;;;13.10;7.27;;;;;;;-5.30;100.00;144986.88;4982328;28;20743;-55
2023/12/04 01:18:44;;;;;;;17.07;8.00;;;;;;;-5.30;100.00;144985.63;4983485;28;20698;-55
2023/12/04 01:21:10;;;;;;;14.03;7.77;;;;;;;-5.38;100.00;144968.38;4984765;28;20235;-55
2023/12/04 01:23:37;;;;;;;16.50;8.33;;;;;;;-5.36;100.00;144972.09;4981905;28;20689;-53
2023/12/04 01:26:04;;;;;;;18.77;8.77;;;;;;;-5.37;100.00;144969.63;4985002;28;20232;-54
2023/12/04 01:28:32;;;;;;;14.70;7.43;;;;;;;-5.38;100.00;144967.19;4981948;28;20230;-52
2023/12/04 01:30:59;;;;;;;17.47;7.97;;;;;;;-5.35;100.00;144974.56;4984880;28;20226;-54
2023/12/04 01:33:25;;;;;;;18.50;7.73;;;;;;;-5.27;100.00;144994.22;4981842;28;20219;-54
2023/12/04 01:35:52;;;;;;;16.10;7.13;;;;;;;-5.31;100.00;144984.41;4983731;28;20306;-52
2023/12/04 01:38:19;;;;;;;16.70;7.23;;;;;;;-5.38;100.00;144967.19;4981013;28;20720;-54
2023/12/04 01:40:45;;;;;;;14.70;7.30;;;;;;;-5.45;100.00;144949.94;4982975;28;20293;-54
2023/12/04 01:43:12;;;;;;;12.10;6.57;;;;;;;-5.46;100.00;144948.69;4985516;28;20728;-54
2023/12/04 01:45:40;;;;;;;15.10;7.33;;;;;;;-5.49;100.00;144942.56;4982509;28;20223;-54
2023/12/04 01:48:08;;;;;;;14.57;7.10;;;;;;;-5.46;100.00;144947.47;4986352;28;20235;-55
2023/12/04 01:50:36;;;;;;;15.30;6.63;;;;;;;-5.49;100.00;144942.56;4984353;28;20616;-55
2023/12/04 01:53:03;;;;;;;16.37;6.87;;;;;;;-5.45;100.00;144951.16;4986102;28;20809;-55
2023/12/04 01:55:30;;;;;;;12.30;6.83;;;;;;;-5.42;100.00;144958.53;4985122;28;20234;-52
2023/12/04 01:57:58;;;;;;;12.43;6.70;;;;;;;-5.49;100.00;144942.56;4986009;28;20241;-55
2023/12/04 02:00:26;;;;;;;12.60;6.37;;;;;;;-5.52;100.00;144933.91;4967017;28;20277;-55
2023/12/04 02:02:54;;;;;;;14.50;7.13;;;;;;;-5.54;100.00;144930.25;4987715;28;20234;-55
2023/12/04 02:05:23;;;;;;;15.57;7.50;;;;;;;-5.53;100.00;144931.47;4985144;28;20226;-53
2023/12/04 02:07:50;;;;;;;12.37;6.10;;;;;;;-5.50;100.00;144938.84;4986581;28;20245;-55
2023/12/04 02:10:16;;;;;;;15.67;6.80;;;;;;;-5.49;100.00;144942.56;4986271;28;20231;-55
2023/12/04 02:12:43;;;;;;;15.13;6.80;;;;;;;-5.40;100.00;144962.25;4983971;28;20246;-56
2023/12/04 02:15:10;;;;;;;10.97;5.80;;;;;;;-5.31;100.00;144984.41;4986727;28;20240;-52
2023/12/04 02:17:37;;;;;;;19.57;7.63;;;;;;;-5.36;100.00;144973.31;4983868;28;20234;-54
2023/12/04 02:20:07;;;;;;;15.10;7.40;;;;;;;-5.36;100.00;144973.31;4987543;28;20747;-52
2023/12/04 02:22:34;;;;;;;14.90;7.37;;;;;;;-5.29;100.00;144988.09;4984910;28;20259;-55
2023/12/04 02:25:02;;;;;;;14.43;6.60;;;;;;;-5.27;100.00;144994.22;4987095;28;20589;-54
2023/12/04 02:27:38;;;;;;;15.40;7.50;;;;;;;-5.28;100.00;144990.53;4984564;28;20234;-53
2023/12/04 02:30:07;;;;;;;13.47;6.80;;;;;;;-5.28;100.00;144990.53;4987383;28;20217;-53
2023/12/04 02:32:39;;;;;;;13.80;7.13;;;;;;;-5.28;100.00;144990.53;4983159;28;20603;-53
2023/12/04 02:35:08;;;;;;;13.13;6.93;;;;;;;-5.28;100.00;144990.53;4985533;28;20710;-55
2023/12/04 02:37:35;;;;;;;25.07;7.93;;;;;;;-5.24;100.00;145001.59;4984662;28;20230;-52
2023/12/04 02:40:04;;;;;;;13.63;7.10;;;;;;;-5.13;100.00;145027.47;4987224;28;20229;-55
2023/12/04 02:42:31;;;;;;;14.37;7.10;;;;;;;-5.10;100.00;145033.63;4983821;28;20266;-52
2023/12/04 02:44:58;;;;;;;16.17;7.13;;;;;;;-5.05;100.00;145045.94;4987160;28;20698;-55
2023/12/04 02:47:24;;;;;;;19.17;8.07;;;;;;;-5.03;100.00;145050.84;4983992;28;20703;-54
2023/12/04 02:49:51;;;;;;;13.97;7.20;;;;;;;-5.02;100.00;145053.31;4985880;28;20230;-55
2023/12/04 02:52:18;;;;;;;14.40;6.97;;;;;;;-5.00;100.00;145058.25;4984438;28;20228;-52
2023/12/04 02:54:44;;;;;;;14.33;6.97;;;;;;;-4.99;100.00;145060.69;4985017;28;20236;-53
2023/12/04 02:57:12;;;;;;;15.00;7.37;;;;;;;-4.84;100.00;145095.19;4986807;28;20242;-55
2023/12/04 02:59:39;;;;;;;18.47;8.13;;;;;;;-4.82;100.00;145101.34;4984121;28;20264;-55
2023/12/04 03:02:05;;;;;;;14.53;7.57;;;;;;;-4.82;100.00;145100.09;4986931;28;20225;-53
2023/12/04 03:04:32;;;;;;;16.93;7.27;;;;;;;-4.77;100.00;145113.63;4983609;28;20238;-52
2023/12/04 03:06:59;;;;;;;16.47;7.73;;;;;;;-4.72;100.00;145124.75;4986461;28;20563;-51
2023/12/04 03:09:26;;;;;;;13.80;7.30;;;;;;;-4.75;100.00;145117.34;4984166;28;20226;-55
2023/12/04 03:11:52;;;;;;;13.10;7.20;;;;;;;-4.74;100.00;145121.03;4985968;28;20591;-53
2023/12/04 03:14:20;;;;;;;16.10;7.67;;;;;;;-4.76;100.00;145116.09;4983877;28;20227;-55
2023/12/04 03:16:47;;;;;;;16.93;7.97;;;;;;;-4.77;100.00;145113.63;4968068;28;21015;-55
2023/12/04 03:19:13;;;;;;;13.83;6.80;;;;;;;-4.75;100.00;145118.56;4986279;28;20227;-54
2023/12/04 03:21:40;;;;;;;14.63;7.17;;;;;;;-4.70;100.00;145129.66;4982679;28;20240;-55
2023/12/04 03:24:06;;;;;;;13.63;6.60;;;;;;;-4.67;100.00;145137.06;4985685;28;20255;-52
2023/12/04 03:26:33;;;;;;;14.80;6.50;;;;;;;-4.65;100.00;145140.72;4955970;28;20691;-54
2023/12/04 03:29:00;;;;;;;12.33;5.70;;;;;;;-4.63;100.00;145145.66;4986492;28;20224;-55
2023/12/04 03:31:28;;;;;;;10.30;4.93;;;;;;;-4.59;100.00;145155.50;4983181;28;20241;-55
2023/12/04 03:33:54;;;;;;;9.83;5.23;;;;;;;-4.61;100.00;145151.84;4986151;28;20615;-54
2023/12/04 03:36:21;;;;;;;14.57;5.77;;;;;;;-4.63;100.00;145146.91;4982730;28;20342;-53
2023/12/04 03:38:48;;;;;;;11.93;6.13;;;;;;;-4.63;100.00;145146.91;4985456;28;20238;-56
2023/12/04 03:41:15;;;;;;;12.63;5.93;;;;;;;-4.63;100.00;145146.91;4985470;28;20231;-56
2023/12/04 03:43:42;;;;;;;14.73;6.53;;;;;;;-4.58;100.00;145156.75;4983061;28;20232;-55
2023/12/04 03:46:09;;;;;;;12.77;5.80;;;;;;;-4.61;100.00;145151.84;4986107;28;20687;-55
2023/12/04 03:48:37;;;;;;;12.53;5.73;;;;;;;-4.57;100.00;145160.44;4983093;28;20239;-56
2023/12/04 03:51:04;;;;;;;11.90;5.90;;;;;;;-4.55;100.00;145165.38;4985406;28;20534;-53
2023/12/04 03:53:30;;;;;;;13.17;6.77;;;;;;;-4.53;100.00;145170.28;4982602;28;20717;-55
2023/12/04 03:55:59;;;;;;;12.17;6.80;;;;;;;-4.48;100.00;145182.59;4985850;28;20246;-54
2023/12/04 03:58:25;;;;;;;11.87;6.07;;;;;;;-4.46;100.00;145187.53;4983355;28;20318;-56
2023/12/04 04:07:26;;;;;;;12.40;6.43;;;;;;;-4.38;100.00;145206.03;4988936;28;20333;-52
2023/12/04 04:09:53;;;;;;;12.87;7.07;;;;;;;-4.38;100.00;145206.03;5003816;28;20321;-52
2023/12/04 04:12:19;;;;;;;16.53;7.23;;;;;;;-4.35;100.00;145212.16;5001491;28;20235;-52
2023/12/04 04:14:46;;;;;;;17.93;7.43;;;;;;;-4.32;100.00;145220.81;5006392;28;20247;-52
2023/12/04 04:17:12;;;;;;;18.60;7.77;;;;;;;-4.33;100.00;145217.09;5004672;28;20223;-52
2023/12/04 04:19:39;;;;;;;13.77;7.03;;;;;;;-4.30;100.00;145225.75;5000655;28;20717;-52
2023/12/04 04:22:06;;;;;;;18.40;8.07;;;;;;;-4.34;100.00;145215.88;5004060;28;20229;-53
2023/12/04 04:24:34;;;;;;;17.77;7.50;;;;;;;-4.30;100.00;145224.50;4999884;28;20230;-51
2023/12/04 04:27:00;;;;;;;15.83;8.20;;;;;;;-4.27;100.00;145230.69;5004218;28;21105;-51
2023/12/04 04:29:27;;;;;;;16.30;7.47;;;;;;;-4.23;100.00;145240.50;5000316;28;20241;-51
2023/12/04 04:31:53;;;;;;;15.60;9.00;;;;;;;-4.19;100.00;145250.34;5263721;23;20250;-56
2023/12/04 04:34:21;;;;;;;15.40;8.03;;;;;;;-4.21;100.00;145245.41;5039582;28;20240;-50
2023/12/04 04:36:47;;;;;;;17.03;8.43;;;;;;;-4.17;100.00;145255.28;5042809;28;20719;-53
2023/12/04 04:39:15;;;;;;;14.63;7.83;;;;;;;-4.20;100.00;145247.88;5043710;28;20722;-54
2023/12/04 04:41:43;;;;;;;15.47;8.20;;;;;;;-4.16;100.00;145259.00;5032332;28;20775;-52
2023/12/04 04:44:09;;;;;;;14.33;8.07;;;;;;;-4.16;100.00;145257.75;5024221;28;20226;-54
2023/12/04 04:46:36;;;;;;;14.87;7.63;;;;;;;-4.17;100.00;145255.28;5021243;28;20231;-51
2023/12/04 04:49:06;;;;;;;19.63;8.73;;;;;;;-4.17;100.00;145256.53;5006655;28;20233;-51
2023/12/04 04:51:33;;;;;;;16.67;8.43;;;;;;;-4.16;100.00;145259.00;5021062;28;20583;-51
2023/12/04 04:54:00;;;;;;;15.43;8.37;;;;;;;-4.15;100.00;145260.19;5021069;28;20254;-52
2023/12/04 04:56:26;;;;;;;17.70;8.33;;;;;;;-4.09;100.00;145273.78;5021008;28;20229;-52
2023/12/04 04:58:54;;;;;;;17.13;8.17;;;;;;;-4.06;100.00;145282.38;5022779;28;20562;-51
2023/12/04 05:01:21;;;;;;;17.37;8.30;;;;;;;-4.06;100.00;145282.38;5020934;28;20238;-52
2023/12/04 05:03:47;;;;;;;17.60;8.80;;;;;;;-4.04;100.00;145286.09;5005465;28;20222;-51
2023/12/04 05:06:15;;;;;;;16.63;8.00;;;;;;;-4.08;100.00;145277.44;5023998;28;20233;-54
2023/12/04 05:08:41;;;;;;;14.27;7.90;;;;;;;-4.09;100.00;145273.78;5020992;28;20230;-52
2023/12/04 05:11:08;;;;;;;16.13;8.70;;;;;;;-4.07;100.00;145279.91;5023264;28;20223;-51
2023/12/04 05:13:34;;;;;;;17.53;8.20;;;;;;;-4.04;100.00;145286.09;5020938;28;20233;-52
2023/12/04 05:16:02;;;;;;;18.23;8.87;;;;;;;-4.04;100.00;145287.31;5021762;28;20216;-52
2023/12/04 05:18:29;;;;;;;17.63;9.00;;;;;;;-4.04;100.00;145287.31;5014452;28;20225;-52
2023/12/04 05:20:56;;;;;;;20.53;9.20;;;;;;;-4.04;100.00;145287.31;5027632;28;20243;-51
2023/12/04 05:23:22;;;;;;;19.77;9.57;;;;;;;-3.95;100.00;145308.28;5024680;28;21132;-51
2023/12/04 05:25:49;;;;;;;18.23;9.20;;;;;;;-4.00;100.00;145297.16;5026054;28;20721;-50
2023/12/04 05:28:15;;;;;;;17.67;9.10;;;;;;;-3.98;100.00;145300.88;5019414;28;20240;-53
2023/12/04 05:30:42;;;;;;;19.77;9.77;;;;;;;-3.95;100.00;145307.03;5024262;28;20253;-53
2023/12/04 05:33:10;;;;;;;14.63;8.17;;;;;;;-3.89;100.00;145321.81;5026666;28;20689;-51
2023/12/04 05:35:37;;;;;;;17.33;8.53;;;;;;;-3.88;100.00;145324.28;5024302;28;20225;-51
2023/12/04 05:38:03;;;;;;;19.10;9.27;;;;;;;-3.90;100.00;145319.34;5027280;28;20279;-51
2023/12/04 05:40:30;;;;;;;19.13;8.60;;;;;;;-3.89;100.00;145323.06;5025179;28;20317;-52
2023/12/04 05:42:57;;;;;;;16.47;8.33;;;;;;;-3.88;100.00;145324.28;5025127;28;20238;-55
2023/12/04 05:45:25;;;;;;;19.17;8.93;;;;;;;-3.83;100.00;145335.41;5024639;28;20242;-53
2023/12/04 05:47:53;;;;;;;19.98;10.98;;;;;;;-3.75;100.00;145355.13;5025634;28;20453;-54
2023/12/04 05:50:21;;;;;;;13.93;7.93;;;;;;;-3.77;100.00;145350.19;5024033;28;20236;-52
2023/12/04 05:52:47;;;;;;;15.60;8.07;;;;;;;-3.78;100.00;145347.72;5025533;28;20225;-52
2023/12/04 05:55:14;;;;;;;15.63;8.00;;;;;;;-3.75;100.00;145355.13;5027095;28;20230;-51
2023/12/04 05:57:41;;;;;;;10.47;5.63;;;;;;;-3.75;100.00;145355.13;5023362;28;20245;-51
2023/12/04 06:00:12;;;;;;;10.93;5.90;;;;;;;-3.74;100.00;145358.78;5027327;28;20246;-51
2023/12/04 06:02:39;;;;;;;10.80;4.70;;;;;;;-3.69;100.00;145369.88;5024162;28;20258;-52
2023/12/04 06:05:06;;;;;;;7.00;3.77;;;;;;;-3.66;100.00;145376.06;5024407;28;20237;-52
2023/12/04 06:07:34;;;;;;;8.90;4.53;;;;;;;-3.64;100.00;145382.19;5023952;28;20230;-52
2023/12/04 06:10:00;;;;;;;11.53;6.23;;;;;;;-3.62;100.00;145385.91;5026022;28;20595;-50
2023/12/04 06:12:27;;;;;;;11.23;6.07;;;;;;;-3.59;100.00;145394.50;5023518;28;20716;-50
2023/12/04 06:14:53;;;;;;;17.57;7.97;;;;;;;-3.48;100.00;145419.16;5025581;28;20324;-51
2023/12/04 06:17:20;;;;;;;39.47;16.47;;;;;;;-3.44;100.00;145429.03;5024151;28;20682;-54
2023/12/04 06:19:47;;;;;;;20.80;9.03;;;;;;;-3.47;100.00;145421.63;5023787;28;20233;-51
2023/12/04 06:22:15;;;;;;;23.93;9.50;;;;;;;-3.50;100.00;145415.50;5026763;28;20708;-51
2023/12/04 06:24:43;;;;;;;12.73;6.50;;;;;;;-3.47;100.00;145422.88;5022914;28;20235;-51
2023/12/04 06:27:13;;;;;;;17.23;9.90;;;;;;;-3.48;100.00;145420.44;5025793;28;20229;-51
2023/12/04 06:29:40;;;;;;;19.40;9.70;;;;;;;-3.46;100.00;145425.34;5022457;28;20799;-51
2023/12/04 06:32:08;;;;;;;11.97;6.77;;;;;;;-3.46;100.00;145425.34;5025906;28;20226;-52
2023/12/04 06:34:35;;;;;;;18.67;10.27;;;;;;;-3.44;100.00;145430.28;5022511;28;20218;-51
2023/12/04 06:37:03;;;;;;;12.53;7.53;;;;;;;-3.42;100.00;145433.97;5024761;28;20233;-52
2023/12/04 06:39:33;;;;;;;10.67;5.80;;;;;;;-3.34;100.00;145452.47;5022929;28;20226;-52
2023/12/04 06:42:03;;;;;;;9.73;6.13;;;;;;;-3.36;100.00;145447.56;5026034;28;20240;-52
2023/12/04 06:44:30;;;;;;;10.73;5.43;;;;;;;-3.36;100.00;145448.75;5022342;28;20573;-51
2023/12/04 06:47:01;;;;;;;9.40;5.20;;;;;;;-3.30;100.00;145462.34;5025188;28;20234;-53
2023/12/04 06:49:31;;;;;;;8.10;4.70;;;;;;;-3.24;100.00;145475.88;5023089;28;20259;-51
2023/12/04 06:51:59;;;;;;;5.07;3.13;;;;;;;-3.20;100.00;145487.00;5025125;28;20253;-51
2023/12/04 06:54:25;;;;;;;11.90;4.10;;;;;;;-3.15;100.00;145499.28;5022329;28;20239;-52
2023/12/04 06:56:52;;;;;;;9.27;4.90;;;;;;;-3.07;100.00;145516.56;5025711;28;20222;-51
2023/12/04 06:59:20;;;;;;;10.37;4.37;;;;;;;-3.05;100.00;145521.50;5026085;28;20234;-52
2023/12/04 07:01:47;;;;;;;12.80;5.22;;;;;;;-3.04;100.00;145523.97;5022560;28;20463;-51
2023/12/04 07:04:14;;;;;;;8.27;4.07;;;;;;;-3.02;100.00;145530.16;5025339;28;20253;-52
2023/12/04 07:06:41;;;;;;;7.60;3.60;;;;;;;-2.99;100.00;145537.53;5021684;28;20231;-50
2023/12/04 07:09:08;;;;;;;10.20;5.97;;;;;;;-2.92;100.00;145552.34;5023785;28;20230;-50
2023/12/04 07:11:35;;;;;;;8.63;4.90;;;;;;;-2.87;100.00;145564.69;5021401;28;20226;-51
2023/12/04 07:14:01;;;;;;;12.33;5.07;;;;;;;-2.79;100.00;145584.41;5025741;28;20221;-50
2023/12/04 07:16:30;;;;;;;9.07;4.80;;;;;;;-2.73;100.00;145599.22;5022736;28;20229;-52
2023/12/04 07:18:56;;;;;;;15.17;8.57;;;;;;;-2.77;100.00;145589.34;5025278;28;20243;-51
2023/12/04 07:21:23;;;;;;;17.53;8.53;;;;;;;-2.83;100.00;145575.75;5023032;28;20250;-51
2023/12/04 07:23:50;;;;;;;15.80;8.67;;;;;;;-2.84;100.00;145572.09;5024486;28;20288;-52
2023/12/04 07:26:17;;;;;;;19.57;7.97;;;;;;;-2.84;100.00;145572.09;5025572;28;20229;-51
2023/12/04 07:28:43;;;;;;;12.47;7.67;;;;;;;-2.83;100.00;145574.56;5022531;28;20243;-50
2023/12/04 07:31:10;;;;;;;23.20;10.63;;;;;;;-2.83;100.00;145575.75;5025093;28;20225;-50
2023/12/04 07:33:38;;;;;;;18.13;9.70;;;;;;;-2.82;100.00;145578.22;5022271;28;20233;-50
2023/12/04 07:36:05;;;;;;;19.43;10.60;;;;;;;-2.79;100.00;145583.16;5023831;28;20232;-50
2023/12/04 07:38:32;;;;;;;31.87;15.83;;;;;;;-2.75;100.00;145594.28;5022200;28;20881;-50
2023/12/04 07:40:58;;;;;;;60.10;30.23;;;;;;;-2.72;100.00;145601.69;5023464;28;20706;-50
2023/12/04 07:43:25;;;;;;;39.97;19.63;;;;;;;-2.66;100.00;145615.22;5022389;28;20219;-50
2023/12/04 07:45:52;;;;;;;29.83;14.53;;;;;;;-2.58;100.00;145634.97;5006421;28;20238;-51
2023/12/04 07:48:18;;;;;;;23.43;12.60;;;;;;;-2.61;100.00;145627.56;5022133;28;20237;-50
2023/12/04 07:50:46;;;;;;;25.90;13.57;;;;;;;-2.63;100.00;145622.63;5021129;28;20245;-54
2023/12/04 07:53:13;;;;;;;27.17;13.73;;;;;;;-2.56;100.00;145639.91;5024109;28;20250;-53
2023/12/04 07:55:40;;;;;;;25.17;11.97;;;;;;;-2.58;100.00;145633.72;5010636;28;20226;-51
2023/12/04 07:58:07;;;;;;;28.60;11.33;;;;;;;-2.52;100.00;145648.53;5023856;28;20224;-51
2023/12/04 08:00:33;;;;;;;23.90;12.70;;;;;;;-2.48;100.00;145657.19;5020377;28;20226;-51
2023/12/04 08:03:00;;;;;;;24.07;12.63;;;;;;;-2.46;100.00;145662.13;5023381;28;20303;-54
2023/12/04 08:05:28;;;;;;;24.93;14.27;;;;;;;-2.36;100.00;145686.78;5018935;28;20237;-52
2023/12/04 08:07:56;;;;;;;22.50;11.93;;;;;;;-2.34;100.00;145690.47;5014115;28;20256;-53
2023/12/04 08:10:23;;;;;;;23.07;11.90;;;;;;;-2.27;100.00;145707.75;5021621;28;20230;-54
2023/12/04 08:12:49;;;;;;;30.73;16.27;;;;;;;-2.14;100.00;145738.63;5005277;28;20317;-54
2023/12/04 08:15:16;;;;;;;30.17;15.87;;;;;;;-2.16;100.00;145734.91;5015807;28;20226;-52
2023/12/04 08:17:43;;;;;;;34.27;16.57;;;;;;;-2.25;100.00;145713.94;5021051;28;20227;-53
2023/12/04 08:20:13;;;;;;;32.63;17.13;;;;;;;-2.21;100.00;145721.34;5023062;28;20234;-51
2023/12/04 08:22:40;;;;;;;31.27;16.57;;;;;;;-2.12;100.00;145744.78;5019825;28;20586;-52
2023/12/04 08:25:08;;;;;;;31.07;16.93;;;;;;;-2.11;100.00;145745.97;5022117;28;20831;-50
2023/12/04 08:27:34;;;;;;;33.70;15.97;;;;;;;-2.04;100.00;145762.06;5020840;28;21028;-50
2023/12/04 08:30:02;;;;;;;32.70;15.57;;;;;;;-1.97;100.00;145779.34;5023837;28;20231;-51
2023/12/04 08:32:29;;;;;;;28.43;15.30;;;;;;;-1.91;100.00;145792.88;5021351;28;20610;-52
2023/12/04 08:34:56;;;;;;;27.30;14.70;;;;;;;-1.92;100.00;145791.69;5024001;28;20228;-50
2023/12/04 08:37:22;;;;;;;31.87;17.10;;;;;;;-1.89;100.00;145797.81;5022083;28;20709;-53
2023/12/04 08:39:49;;;;;;;29.37;15.27;;;;;;;-1.97;100.00;145780.53;5006055;28;20231;-50
2023/12/04 08:42:18;;;;;;;30.67;15.00;;;;;;;-2.05;100.00;145760.78;5024373;28;20227;-50
2023/12/04 08:44:45;;;;;;;25.77;13.93;;;;;;;-2.04;100.00;145762.06;5021022;28;20224;-51
2023/12/04 08:47:12;;;;;;;27.67;16.20;;;;;;;-2.05;100.00;145760.78;5023741;28;20702;-51
2023/12/04 08:49:40;;;;;;;28.10;13.50;;;;;;;-2.04;100.00;145762.06;5020913;28;20235;-52
2023/12/04 08:52:07;;;;;;;26.93;14.73;;;;;;;-2.10;100.00;145749.72;5022921;28;20583;-54
2023/12/04 08:54:34;;;;;;;24.67;13.13;;;;;;;-2.04;100.00;145763.25;5020844;28;20231;-50
2023/12/04 08:57:00;;;;;;;27.40;14.77;;;;;;;-2.01;100.00;145769.47;5023870;28;20606;-50
2023/12/04 08:59:28;;;;;;;24.77;13.47;;;;;;;-1.91;100.00;145792.88;5021463;28;20235;-51
2023/12/04 09:01:55;;;;;;;24.20;14.17;;;;;;;-1.75;100.00;145832.38;5022977;28;20743;-50
2023/12/04 09:04:21;;;;;;;25.60;14.83;;;;;;;-1.77;100.00;145827.44;5020804;28;20258;-52
2023/12/04 09:06:48;;;;;;;27.43;14.83;;;;;;;-1.65;100.00;145857.09;5023832;28;20223;-51
2023/12/04 09:09:15;;;;;;;29.83;18.53;;;;;;;-1.85;100.00;145807.69;5013585;28;20246;-50
2023/12/04 09:11:43;;;;;;;26.13;14.30;;;;;;;-2.02;100.00;145767.00;5018854;28;20244;-50
2023/12/04 09:14:09;;;;;;;29.37;15.63;;;;;;;-1.86;100.00;145805.22;5022470;28;20713;-52
2023/12/04 09:16:38;;;;;;;30.23;14.77;;;;;;;-2.27;100.00;145709.00;5021281;28;20223;-50
2023/12/04 09:19:04;;;;;;;28.53;14.77;;;;;;;-2.15;100.00;145736.16;5022837;28;20297;-50
2023/12/04 09:21:31;;;;;;;32.57;17.63;;;;;;;-2.16;100.00;145733.69;5020860;28;20231;-50
2023/12/04 09:23:57;;;;;;;34.13;16.83;;;;;;;-2.10;100.00;145748.44;5022795;28;20319;-51
2023/12/04 09:26:24;;;;;;;24.77;14.47;;;;;;;-2.25;100.00;145712.69;5020696;28;20238;-52
2023/12/04 09:28:51;;;;;;;31.03;16.93;;;;;;;-2.27;100.00;145709.00;5021007;28;20246;-51
2023/12/04 09:31:18;;;;;;;27.33;16.07;;;;;;;-2.24;100.00;145716.41;5022178;28;20238;-51
2023/12/04 09:33:47;;;;;;;31.93;17.17;;;;;;;-2.28;100.00;145706.53;5019805;28;20242;-50
2023/12/04 09:36:13;;;;;;;31.17;15.53;;;;;;;-2.43;100.00;145669.53;5022479;28;20327;-50
2023/12/04 09:38:40;;;;;;;36.97;20.67;;;;;;;-2.23;100.00;145718.88;5020450;28;20229;-52
2023/12/04 09:41:09;;;;;;;29.67;15.73;;;;;;;-2.13;100.00;145742.31;5019406;28;20224;-53
2023/12/04 09:43:37;;;;;;;34.07;18.27;;;;;;;-1.85;100.00;145807.69;5018374;28;20227;-51
2023/12/04 09:46:05;;;;;;;26.02;14.63;;;;;;;-1.64;100.00;145859.56;5023101;28;20445;-52
2023/12/04 09:48:32;;;;;;;31.07;18.03;;;;;;;-1.48;100.00;145896.59;4999904;28;20276;-52
2023/12/04 09:51:01;;;;;;;29.93;16.73;;;;;;;-1.22;100.00;145958.34;5021658;28;20272;-51
2023/12/04 09:53:27;;;;;;;30.60;17.50;;;;;;;-1.40;100.00;145915.09;5019493;28;20630;-51
2023/12/04 09:55:56;;;;;;;29.90;16.73;;;;;;;-1.51;100.00;145890.41;5022660;28;20234;-50
2023/12/04 09:58:26;;;;;;;36.63;20.37;;;;;;;-1.35;100.00;145927.44;5020468;28;20238;-51
2023/12/04 10:00:54;;;;;;;29.63;16.87;;;;;;;-1.11;100.00;145984.25;5022654;28;20262;-51
2023/12/04 10:03:21;;;;;;;26.37;14.53;;;;;;;-0.94;100.00;146026.25;5023489;28;20224;-51
2023/12/04 10:05:49;;;;;;;24.63;14.23;;;;;;;-0.78;100.00;146063.31;5024661;28;20220;-51
2023/12/04 10:08:17;;;;;;;27.20;15.37;;;;;;;-0.52;100.00;146126.31;5026149;28;20226;-50
2023/12/04 10:10:44;;;;;;;25.67;14.10;;;;;;;-0.42;100.00;146148.53;5022832;28;20310;-50
2023/12/04 10:13:11;;;;;;;23.67;13.57;;;;;;;-0.47;100.00;146137.41;5026224;28;20315;-52
2023/12/04 10:15:47;;;;;;;23.00;13.77;;;;;;;-0.21;100.00;146200.44;5023762;28;20582;-51
2023/12/04 10:18:25;;;;;;;20.73;13.07;;;;;;;-0.18;100.00;146207.88;5025415;28;20227;-51
2023/12/04 10:20:53;;;;;;;24.13;13.97;;;;;;;-0.08;100.00;146230.13;5023452;28;20230;-54
2023/12/04 10:23:22;;;;;;;23.23;13.83;;;;;;;-0.16;100.00;146212.81;5026030;28;20227;-51
2023/12/04 10:25:50;;;;;;;27.73;15.17;;;;;;;-0.63;100.00;146100.38;5024104;28;20220;-53
2023/12/04 10:28:18;;;;;;;26.97;14.70;;;;;;;-1.07;100.00;145994.13;5007502;28;20223;-51
2023/12/04 10:30:44;;;;;;;29.63;18.17;;;;;;;-1.67;100.00;145850.94;5022791;28;20238;-51
2023/12/04 10:33:12;;;;;;;31.07;18.00;;;;;;;-1.72;100.00;145839.78;5026324;28;20229;-51
2023/12/04 10:35:39;;;;;;;24.20;14.83;;;;;;;-1.50;100.00;145891.66;5023198;28;20226;-54
2023/12/04 10:38:06;;;;;;;26.10;14.87;;;;;;;-1.47;100.00;145899.06;5026327;28;20230;-50
2023/12/04 10:40:36;;;;;;;26.40;14.00;;;;;;;-1.53;100.00;145884.25;5022884;28;20234;-50
2023/12/04 10:43:15;;;;;;;29.40;14.33;;;;;;;-1.49;100.00;145895.34;5025946;28;20646;-51
2023/12/04 10:45:43;;;;;;;27.23;14.70;;;;;;;-1.45;100.00;145904.00;5014002;28;20235;-55
2023/12/04 10:48:11;;;;;;;40.10;23.27;;;;;;;-1.62;100.00;145863.28;5023004;28;20321;-52
2023/12/04 10:50:39;;;;;;;38.40;22.77;;;;;;;-1.62;100.00;145863.28;4996311;28;20235;-50
2023/12/04 10:53:05;;;;;;;19.20;10.23;;;;;;;-1.70;100.00;145844.72;5024155;28;20228;-51
2023/12/04 10:55:33;;;;;;;25.07;14.17;;;;;;;-1.82;100.00;145816.38;5022913;28;20741;-51
2023/12/04 10:58:03;;;;;;;27.80;15.70;;;;;;;-2.01;100.00;145770.66;5000384;28;20239;-51
2023/12/04 11:00:32;;;;;;;26.50;13.63;;;;;;;-1.90;100.00;145796.63;5021967;28;20756;-51
2023/12/04 11:03:04;;;;;;;26.83;14.63;;;;;;;-1.68;100.00;145849.66;5024124;28;20229;-51
2023/12/04 11:05:34;;;;;;;27.20;14.03;;;;;;;-1.36;100.00;145926.22;5021439;28;20223;-50
2023/12/04 11:08:04;;;;;;;26.00;13.67;;;;;;;-1.21;100.00;145960.81;5024786;28;20295;-50
2023/12/04 11:10:33;;;;;;;27.83;15.20;;;;;;;-1.05;100.00;145999.06;5022414;28;20287;-51
2023/12/04 11:13:08;;;;;;;30.97;17.73;;;;;;;-0.98;100.00;146015.09;5023707;28;20243;-52